createdAt,value
2022-09-26T00:01:44.082Z,15.93
2022-09-26T00:04:27.931Z,16.33
2022-09-26T00:06:58.618Z,16.55
2022-09-26T00:09:27.982Z,16.12
2022-09-26T00:11:55.817Z,16.10
2022-09-26T00:14:28.310Z,15.77
2022-09-26T00:16:56.760Z,15.75
2022-09-26T00:19:24.955Z,16.93
2022-09-26T00:21:52.852Z,16.75
2022-09-26T00:24:22.315Z,17.80
2022-09-26T00:26:51.652Z,17.77
2022-09-26T00:29:20.661Z,16.77
2022-09-26T00:31:49.391Z,17.08
2022-09-26T00:34:19.474Z,15.63
2022-09-26T00:36:52.832Z,15.77
2022-09-26T00:39:20.450Z,15.60
2022-09-26T00:41:50.140Z,15.82
2022-09-26T00:44:46.339Z,16.77
2022-09-26T00:47:20.928Z,16.20
2022-09-26T00:49:57.009Z,17.00
2022-09-26T00:52:29.219Z,17.25
2022-09-26T00:54:59.008Z,16.85
2022-09-26T00:57:37.422Z,16.53
2022-09-26T01:00:10.081Z,16.77
2022-09-26T01:02:42.893Z,16.70
2022-09-26T01:05:13.488Z,17.15
2022-09-26T01:07:41.058Z,17.30
2022-09-26T01:10:09.966Z,17.45
2022-09-26T01:12:39.674Z,16.80
2022-09-26T01:15:09.232Z,17.53
2022-09-26T01:17:42.636Z,17.52
2022-09-26T01:20:15.947Z,17.73
2022-09-26T01:23:06.711Z,18.37
2022-09-26T01:26:05.838Z,16.95
2022-09-26T01:29:01.057Z,16.65
2022-09-26T01:32:11.935Z,17.12
2022-09-26T01:34:50.946Z,16.30
2022-09-26T01:37:34.824Z,17.63
2022-09-26T01:40:32.710Z,17.77
2022-09-26T01:43:20.612Z,17.75
2022-09-26T01:45:57.160Z,17.23
2022-09-26T01:48:37.716Z,17.37
2022-09-26T01:51:09.933Z,18.27
2022-09-26T01:53:51.415Z,17.60
2022-09-26T01:56:22.495Z,18.40
2022-09-26T01:58:55.495Z,19.05
2022-09-26T02:01:25.934Z,18.05
2022-09-26T02:04:05.016Z,17.83
2022-09-26T02:06:38.480Z,18.23
2022-09-26T02:09:33.595Z,18.70
2022-09-26T02:12:07.129Z,17.90
2022-09-26T02:14:38.528Z,18.95
2022-09-26T02:17:15.538Z,18.77
2022-09-26T02:19:43.678Z,18.58
2022-09-26T02:22:11.341Z,19.25
2022-09-26T02:24:44.254Z,19.60
2022-09-26T02:27:13.313Z,19.58
2022-09-26T02:29:41.310Z,19.80
2022-09-26T02:32:17.221Z,20.15
2022-09-26T02:34:47.620Z,19.58
2022-09-26T02:37:21.004Z,19.90
2022-09-26T02:39:50.600Z,19.05
2022-09-26T02:42:28.679Z,19.15
2022-09-26T02:45:16.036Z,19.37
2022-09-26T02:48:21.166Z,19.10
2022-09-26T02:51:07.854Z,17.70
2022-09-26T02:54:02.879Z,18.50
2022-09-26T02:57:04.792Z,18.25
2022-09-26T03:00:04.083Z,18.25
2022-09-26T03:02:50.703Z,17.95
2022-09-26T03:05:23.788Z,18.12
2022-09-26T03:08:07.886Z,18.20
2022-09-26T03:10:37.614Z,17.90
2022-09-26T03:13:14.827Z,17.62
2022-09-26T03:15:54.253Z,17.47
2022-09-26T03:18:28.657Z,17.80
2022-09-26T03:20:57.321Z,17.80
2022-09-26T03:23:28.391Z,18.52
2022-09-26T03:26:03.596Z,18.23
2022-09-26T03:28:37.870Z,18.62
2022-09-26T03:31:22.435Z,18.13
2022-09-26T03:33:52.629Z,18.17
2022-09-26T03:36:23.832Z,18.40
2022-09-26T03:38:52.600Z,17.73
2022-09-26T03:41:27.099Z,18.73
2022-09-26T03:44:25.871Z,18.23
2022-09-26T03:46:57.556Z,17.70
2022-09-26T03:49:26.266Z,17.70
2022-09-26T03:51:55.941Z,17.73
2022-09-26T03:54:29.046Z,17.83
2022-09-26T03:57:00.659Z,18.27
2022-09-26T03:59:37.416Z,17.52
2022-09-26T04:02:13.315Z,17.95
2022-09-26T04:04:45.561Z,18.00
2022-09-26T04:07:16.815Z,18.80
2022-09-26T04:09:46.042Z,18.98
2022-09-26T04:12:15.651Z,19.05
2022-09-26T04:14:48.592Z,18.70
2022-09-26T04:17:20.794Z,20.02
2022-09-26T04:19:51.549Z,20.17
2022-09-26T04:22:19.673Z,20.45
2022-09-26T04:24:50.069Z,20.37
2022-09-26T04:27:22.255Z,19.90
2022-09-26T04:29:51.145Z,21.33
2022-09-26T04:32:22.618Z,20.90
2022-09-26T04:35:10.088Z,19.95
2022-09-26T04:37:42.407Z,19.45
2022-09-26T04:40:14.803Z,22.40
2022-09-26T04:42:49.840Z,20.65
2022-09-26T04:45:19.073Z,20.80
2022-09-26T04:47:48.968Z,20.00
2022-09-26T04:50:22.043Z,19.62
2022-09-26T04:53:07.082Z,19.55
2022-09-26T04:55:38.229Z,20.65
2022-09-26T04:58:06.886Z,20.00
2022-09-26T05:00:35.284Z,20.00
2022-09-26T05:03:08.371Z,20.88
2022-09-26T05:05:37.679Z,20.60
2022-09-26T05:08:07.727Z,20.60
2022-09-26T05:10:36.115Z,20.65
2022-09-26T05:13:06.413Z,19.75
2022-09-26T05:15:40.018Z,20.00
2022-09-26T05:18:08.678Z,20.05
2022-09-26T05:20:39.352Z,20.42
2022-09-26T05:23:10.689Z,21.70
2022-09-26T05:25:59.125Z,20.83
2022-09-26T05:28:29.064Z,21.17
2022-09-26T05:30:57.670Z,22.48
2022-09-26T05:33:35.109Z,21.48
2022-09-26T05:36:03.672Z,22.47
2022-09-26T05:38:36.393Z,23.27
2022-09-26T05:41:04.468Z,24.05
2022-09-26T05:43:33.858Z,23.40
2022-09-26T05:46:05.608Z,23.77
2022-09-26T05:48:36.681Z,25.48
2022-09-26T05:51:16.766Z,24.85
2022-09-26T05:53:46.541Z,24.70
2022-09-26T05:56:24.889Z,24.25
2022-09-26T05:58:55.264Z,24.85
2022-09-26T06:01:24.438Z,25.43
2022-09-26T06:03:55.003Z,25.30
2022-09-26T06:06:23.910Z,25.47
2022-09-26T06:08:54.643Z,26.08
2022-09-26T06:11:30.991Z,27.13
2022-09-26T06:14:01.368Z,26.73
2022-09-26T06:16:29.413Z,25.37
2022-09-26T06:19:00.208Z,25.23
2022-09-26T06:21:30.029Z,25.27
2022-09-26T06:24:00.448Z,24.75
2022-09-26T06:26:32.263Z,25.70
2022-09-26T06:29:00.950Z,24.25
2022-09-26T06:31:41.166Z,23.75
2022-09-26T06:34:16.077Z,25.35
2022-09-26T06:36:47.250Z,23.80
2022-09-26T06:39:21.202Z,23.83
2022-09-26T06:41:53.272Z,23.60
2022-09-26T06:44:26.511Z,23.70
2022-09-26T06:47:00.971Z,23.77
2022-09-26T06:49:49.170Z,23.70
2022-09-26T06:52:23.049Z,23.62
2022-09-26T06:54:56.851Z,24.65
2022-09-26T06:57:24.949Z,24.02
2022-09-26T06:59:54.076Z,24.35
2022-09-26T07:02:22.079Z,23.38
2022-09-26T07:04:52.611Z,24.02
2022-09-26T07:07:20.766Z,24.75
2022-09-26T07:09:56.681Z,23.98
2022-09-26T07:12:31.453Z,24.08
2022-09-26T07:15:02.392Z,22.43
2022-09-26T07:17:33.104Z,22.17
2022-09-26T07:20:03.555Z,21.80
2022-09-26T07:22:48.774Z,20.17
2022-09-26T07:25:18.960Z,20.95
2022-09-26T07:27:58.991Z,21.23
2022-09-26T07:30:28.449Z,19.45
2022-09-26T07:33:03.847Z,20.17
2022-09-26T07:35:36.552Z,19.27
2022-09-26T07:38:06.630Z,20.02
2022-09-26T07:40:34.815Z,19.65
2022-09-26T07:43:19.820Z,17.90
2022-09-26T07:46:33.564Z,16.00
2022-09-26T07:49:22.272Z,14.13
2022-09-26T07:51:56.765Z,14.77
2022-09-26T07:54:25.904Z,14.57
2022-09-26T07:56:54.771Z,14.18
2022-09-26T07:59:23.573Z,14.63
2022-09-26T08:01:58.351Z,15.13
2022-09-26T08:04:32.119Z,13.73
2022-09-26T08:07:00.395Z,13.70
2022-09-26T08:09:28.685Z,13.20
2022-09-26T08:11:57.643Z,13.40
2022-09-26T08:14:27.238Z,13.18
2022-09-26T08:16:56.055Z,14.13
2022-09-26T08:19:25.787Z,13.68
2022-09-26T08:21:53.640Z,13.82
2022-09-26T08:24:21.568Z,13.93
2022-09-26T08:26:50.074Z,14.15
2022-09-26T08:29:19.863Z,13.82
2022-09-26T08:31:51.460Z,14.40
2022-09-26T08:34:25.386Z,13.65
2022-09-26T08:36:55.676Z,13.60
2022-09-26T08:39:24.096Z,13.62
2022-09-26T08:42:34.398Z,12.95
2022-09-26T08:45:33.131Z,13.40
2022-09-26T08:48:15.411Z,13.35
2022-09-26T08:50:52.062Z,13.17
2022-09-26T08:53:24.554Z,13.27
2022-09-26T08:55:53.824Z,12.20
2022-09-26T08:58:29.213Z,12.55
2022-09-26T09:01:02.860Z,11.85
2022-09-26T09:03:57.613Z,12.70
2022-09-26T09:06:27.191Z,11.40
2022-09-26T09:08:56.673Z,11.57
2022-09-26T09:11:30.899Z,11.40
2022-09-26T09:14:11.558Z,11.20
2022-09-26T09:17:00.811Z,11.12
2022-09-26T09:19:49.017Z,10.60
2022-09-26T09:22:40.961Z,10.00
2022-09-26T09:25:22.008Z,10.65
2022-09-26T09:28:16.254Z,9.77
2022-09-26T09:30:55.094Z,10.02
2022-09-26T09:33:37.127Z,10.10
2022-09-26T09:36:10.257Z,10.02
2022-09-26T09:38:39.672Z,9.93
2022-09-26T09:41:42.963Z,10.05
2022-09-26T09:44:26.695Z,10.23
2022-09-26T09:46:54.206Z,10.87
2022-09-26T09:49:23.859Z,10.48
2022-09-26T09:52:22.058Z,10.18
2022-09-26T09:55:11.686Z,10.10
2022-09-26T09:57:57.097Z,10.30
2022-09-26T10:00:27.689Z,9.73
2022-09-26T10:03:14.931Z,9.88
2022-09-26T10:05:47.461Z,9.43
2022-09-26T10:08:27.819Z,8.13
2022-09-26T10:11:34.779Z,8.75
2022-09-26T10:14:07.845Z,8.50
2022-09-26T10:17:12.209Z,8.40
2022-09-26T10:19:45.085Z,8.52
2022-09-26T10:22:27.347Z,8.18
2022-09-26T10:25:16.835Z,8.17
2022-09-26T10:27:50.792Z,8.25
2022-09-26T10:30:18.871Z,7.63
2022-09-26T10:32:50.807Z,7.75
2022-09-26T10:35:25.503Z,7.30
2022-09-26T10:38:06.402Z,7.55
2022-09-26T10:40:51.264Z,7.57
2022-09-26T10:43:31.902Z,7.32
2022-09-26T10:46:06.519Z,7.50
2022-09-26T10:49:02.437Z,6.15
2022-09-26T10:51:42.361Z,5.70
2022-09-26T10:54:13.565Z,5.30
2022-09-26T10:56:46.353Z,5.10
2022-09-26T10:59:18.683Z,5.00
2022-09-26T11:01:55.947Z,4.60
2022-09-26T11:04:45.609Z,5.70
2022-09-26T11:07:24.899Z,5.95
2022-09-26T11:10:00.006Z,6.20
2022-09-26T11:12:31.717Z,5.93
2022-09-26T11:15:01.615Z,6.07
2022-09-26T11:17:48.873Z,5.85
2022-09-26T11:20:35.583Z,6.30
2022-09-26T11:23:35.023Z,5.93
2022-09-26T11:26:27.968Z,4.78
2022-09-26T11:29:20.581Z,5.20
2022-09-26T11:31:48.941Z,4.62
2022-09-26T11:34:27.862Z,4.20
2022-09-26T11:37:10.600Z,5.20
2022-09-26T11:40:10.143Z,4.70
2022-09-26T11:42:53.050Z,4.72
2022-09-26T11:45:53.652Z,5.00
2022-09-26T11:48:23.681Z,4.90
2022-09-26T11:50:59.028Z,5.20
2022-09-26T11:54:06.865Z,5.10
2022-09-26T11:57:16.126Z,4.60
2022-09-26T12:00:02.667Z,4.80
2022-09-26T12:03:05.693Z,4.62
2022-09-26T12:05:57.161Z,5.20
2022-09-26T12:08:47.385Z,5.10
2022-09-26T12:11:45.886Z,5.30
2022-09-26T12:14:54.286Z,5.00
2022-09-26T12:17:44.057Z,4.82
2022-09-26T12:20:53.360Z,4.32
2022-09-26T12:23:35.155Z,4.72
2022-09-26T12:26:34.870Z,5.30
2022-09-26T12:29:05.972Z,5.23
2022-09-26T12:31:50.767Z,5.68
2022-09-26T12:34:30.301Z,5.12
2022-09-26T12:37:25.414Z,4.95
2022-09-26T12:40:01.812Z,5.20
2022-09-26T12:42:49.511Z,5.57
2022-09-26T12:46:04.684Z,5.35
2022-09-26T12:49:14.813Z,5.67
2022-09-26T12:51:52.917Z,5.78
2022-09-26T12:54:33.639Z,5.00
2022-09-26T12:57:53.220Z,5.60
2022-09-26T13:00:25.450Z,5.40
2022-09-26T13:03:28.384Z,5.37
2022-09-26T13:06:08.734Z,5.43
2022-09-26T13:08:57.597Z,5.80
2022-09-26T13:11:48.563Z,6.07
2022-09-26T13:14:28.276Z,5.22
2022-09-26T13:17:10.674Z,4.80
2022-09-26T13:20:17.660Z,5.10
2022-09-26T13:22:57.018Z,5.50
2022-09-26T13:25:56.727Z,5.90
2022-09-26T13:28:55.488Z,7.50
2022-09-26T13:31:56.259Z,5.55
2022-09-26T13:34:38.113Z,5.95
2022-09-26T13:37:21.524Z,6.83
2022-09-26T13:40:03.652Z,8.17
2022-09-26T13:42:45.296Z,7.65
2022-09-26T13:45:25.690Z,6.95
2022-09-26T13:48:02.962Z,7.30
2022-09-26T13:50:34.063Z,7.05
2022-09-26T13:53:18.121Z,7.60
2022-09-26T13:56:05.829Z,6.68
2022-09-26T13:58:40.396Z,6.90
2022-09-26T14:01:28.007Z,6.90
2022-09-26T14:04:21.484Z,6.55
2022-09-26T14:07:29.913Z,6.82
2022-09-26T14:10:12.391Z,7.67
2022-09-26T14:13:08.476Z,6.35
2022-09-26T14:15:48.573Z,6.65
2022-09-26T14:18:28.294Z,5.95
2022-09-26T14:20:55.977Z,6.40
2022-09-26T14:24:12.958Z,6.15
2022-09-26T14:26:45.029Z,6.22
2022-09-26T14:29:35.873Z,6.10
2022-09-26T14:32:12.572Z,6.37
2022-09-26T14:34:57.670Z,5.97
2022-09-26T14:37:30.629Z,5.82
2022-09-26T14:40:10.304Z,5.30
2022-09-26T14:42:47.316Z,5.25
2022-09-26T14:45:25.753Z,5.35
2022-09-26T14:48:15.480Z,4.80
2022-09-26T14:50:59.360Z,4.75
2022-09-26T14:54:01.302Z,4.57
2022-09-26T14:56:32.961Z,4.40
2022-09-26T14:59:17.219Z,4.43
2022-09-26T15:01:46.956Z,5.03
2022-09-26T15:04:31.519Z,5.12
2022-09-26T15:07:06.350Z,4.83
2022-09-26T15:09:57.148Z,5.03
2022-09-26T15:12:48.549Z,5.43
2022-09-26T15:15:56.564Z,4.67
2022-09-26T15:18:27.200Z,5.10
2022-09-26T15:21:04.187Z,4.47
2022-09-26T15:23:45.776Z,4.20
2022-09-26T15:26:25.757Z,4.10
2022-09-26T15:28:55.169Z,4.15
2022-09-26T15:31:25.932Z,4.12
2022-09-26T15:34:04.608Z,4.20
2022-09-26T15:36:38.764Z,4.25
2022-09-26T15:39:36.752Z,4.80
2022-09-26T15:42:37.678Z,4.80
2022-09-26T15:45:30.637Z,4.93
2022-09-26T15:48:24.073Z,5.50
2022-09-26T15:50:59.170Z,10.88
2022-09-26T15:53:55.671Z,10.35
2022-09-26T15:56:35.027Z,9.57
2022-09-26T15:59:03.737Z,9.73
2022-09-26T16:01:35.029Z,7.57
2022-09-26T16:04:14.326Z,6.75
2022-09-26T16:07:07.855Z,6.85
2022-09-26T16:09:40.911Z,14.40
2022-09-26T16:12:15.593Z,15.82
2022-09-26T16:14:50.252Z,14.82
2022-09-26T16:17:34.996Z,13.50
2022-09-26T16:20:25.765Z,12.85
2022-09-26T16:23:05.669Z,10.95
2022-09-26T16:25:42.709Z,11.03
2022-09-26T16:28:11.343Z,11.15
2022-09-26T16:30:42.581Z,14.02
2022-09-26T16:33:25.990Z,15.50
2022-09-26T16:35:54.513Z,12.63
2022-09-26T16:38:36.431Z,11.07
2022-09-26T16:41:10.405Z,8.85
2022-09-26T16:43:39.199Z,8.70
2022-09-26T16:46:19.521Z,7.60
2022-09-26T16:48:56.941Z,8.33
2022-09-26T16:51:41.655Z,10.80
2022-09-26T16:54:19.962Z,10.15
2022-09-26T16:56:52.960Z,11.90
2022-09-26T16:59:32.934Z,11.82
2022-09-26T17:02:11.018Z,10.20
2022-09-26T17:04:40.222Z,9.00
2022-09-26T17:07:13.127Z,9.00
2022-09-26T17:09:43.604Z,8.90
2022-09-26T17:12:25.010Z,8.05
2022-09-26T17:14:57.300Z,7.62
2022-09-26T17:17:26.041Z,12.52
2022-09-26T17:19:59.547Z,12.65
2022-09-26T17:22:28.534Z,12.07
2022-09-26T17:24:56.516Z,11.80
2022-09-26T17:27:29.054Z,12.40
2022-09-26T17:30:01.004Z,10.98
2022-09-26T17:32:37.556Z,11.07
2022-09-26T17:35:20.171Z,10.87
2022-09-26T17:37:48.191Z,10.10
2022-09-26T17:40:24.679Z,9.15
2022-09-26T17:42:57.212Z,8.85
2022-09-26T17:45:37.862Z,9.98
2022-09-26T17:48:27.173Z,9.77
2022-09-26T17:51:03.069Z,10.75
2022-09-26T17:53:38.918Z,8.70
2022-09-26T17:56:13.145Z,8.30
2022-09-26T17:59:00.261Z,9.30
2022-09-26T18:01:40.780Z,9.25
2022-09-26T18:04:13.508Z,9.55
2022-09-26T18:06:43.381Z,10.93
2022-09-26T18:09:18.981Z,12.27
2022-09-26T18:12:00.135Z,18.98
2022-09-26T18:14:39.151Z,26.08
2022-09-26T18:17:18.704Z,24.92
2022-09-26T18:20:11.385Z,24.75
2022-09-26T18:22:41.477Z,19.60
2022-09-26T18:25:18.809Z,17.40
2022-09-26T18:27:53.803Z,15.98
2022-09-26T18:30:26.554Z,17.02
2022-09-26T18:32:56.718Z,16.30
2022-09-26T18:35:51.260Z,15.50
2022-09-26T18:38:40.673Z,15.65
2022-09-26T18:41:30.811Z,16.48
2022-09-26T18:44:19.558Z,20.27
2022-09-26T18:47:01.857Z,14.38
2022-09-26T18:49:45.391Z,14.20
2022-09-26T18:52:46.510Z,12.90
2022-09-26T18:55:43.393Z,13.02
2022-09-26T18:58:31.963Z,11.98
2022-09-26T19:01:30.056Z,11.63
2022-09-26T19:04:04.717Z,11.05
2022-09-26T19:06:40.270Z,10.38
2022-09-26T19:12:32.764Z,11.07
2022-09-26T19:15:12.710Z,13.00
2022-09-26T19:17:45.024Z,11.02
2022-09-26T19:20:16.670Z,11.60
2022-09-26T19:22:46.087Z,10.13
2022-09-26T19:25:16.220Z,10.90
2022-09-26T19:27:57.656Z,10.52
2022-09-26T19:30:27.841Z,10.85
2022-09-26T19:32:57.333Z,11.10
2022-09-26T19:35:34.735Z,10.50
2022-09-26T19:38:07.755Z,11.98
2022-09-26T19:40:38.633Z,12.00
2022-09-26T19:43:13.670Z,12.20
2022-09-26T19:45:58.845Z,12.27
2022-09-26T19:48:48.258Z,11.88
2022-09-26T19:51:23.052Z,11.98
2022-09-26T19:53:53.179Z,15.25
2022-09-26T19:56:26.155Z,15.27
2022-09-26T19:58:54.696Z,14.10
2022-09-26T20:01:28.573Z,13.62
2022-09-26T20:03:59.958Z,14.68
2022-09-26T20:06:37.278Z,19.90
2022-09-26T20:09:18.248Z,22.23
2022-09-26T20:11:52.019Z,16.87
2022-09-26T20:14:23.971Z,17.00
2022-09-26T20:17:05.146Z,16.75
2022-09-26T20:19:43.754Z,15.50
2022-09-26T20:22:25.100Z,19.23
2022-09-26T20:24:57.887Z,19.52
2022-09-26T20:27:36.312Z,17.25
2022-09-26T20:30:39.566Z,16.43
2022-09-26T20:33:24.062Z,13.10
2022-09-26T20:36:05.692Z,11.83
2022-09-26T20:38:48.659Z,11.40
2022-09-26T20:41:31.433Z,10.80
2022-09-26T20:44:22.132Z,10.55
2022-09-26T20:46:54.984Z,10.80
2022-09-26T20:49:54.024Z,11.60
2022-09-26T20:52:32.195Z,10.85
2022-09-26T20:55:02.958Z,10.65
2022-09-26T20:57:35.062Z,11.07
2022-09-26T21:00:17.975Z,11.10
2022-09-26T21:02:54.349Z,10.30
2022-09-26T21:05:24.919Z,10.25
2022-09-26T21:07:54.494Z,10.20
2022-09-26T21:10:29.044Z,12.85
2022-09-26T21:12:57.913Z,11.30
2022-09-26T21:15:27.888Z,10.90
2022-09-26T21:17:55.652Z,11.20
2022-09-26T21:20:29.985Z,10.73
2022-09-26T21:22:58.270Z,10.75
2022-09-26T21:25:31.201Z,11.25
2022-09-26T21:28:06.591Z,11.18
2022-09-26T21:30:34.446Z,11.23
2022-09-26T21:33:01.937Z,10.98
2022-09-26T21:35:31.159Z,11.80
2022-09-26T21:37:59.700Z,11.52
2022-09-26T21:40:29.871Z,12.40
2022-09-26T21:43:02.776Z,13.88
2022-09-26T21:45:34.054Z,13.45
2022-09-26T21:48:01.662Z,13.07
2022-09-26T21:50:29.379Z,13.90
2022-09-26T21:53:01.838Z,14.57
2022-09-26T21:55:33.979Z,14.05
2022-09-26T21:58:07.463Z,13.27
2022-09-26T22:00:35.125Z,14.20
2022-09-26T22:03:02.831Z,15.00
2022-09-26T22:05:31.011Z,13.70
2022-09-26T22:07:58.964Z,13.65
2022-09-26T22:10:29.392Z,13.00
2022-09-26T22:12:57.063Z,13.07
2022-09-26T22:15:24.581Z,12.68
2022-09-26T22:17:53.130Z,12.70
2022-09-26T22:20:21.898Z,12.82
2022-09-26T22:22:50.810Z,13.18
2022-09-26T22:25:21.542Z,13.82
2022-09-26T22:27:48.943Z,12.88
2022-09-26T22:30:19.372Z,12.32
2022-09-26T22:32:47.145Z,11.50
2022-09-26T22:35:15.136Z,11.45
2022-09-26T22:37:42.617Z,11.73
2022-09-26T22:40:10.600Z,11.70
2022-09-26T22:42:40.514Z,12.70
2022-09-26T22:45:11.678Z,12.85
2022-09-26T22:47:39.403Z,12.37
2022-09-26T22:50:07.133Z,12.13
2022-09-26T22:52:34.557Z,12.50
2022-09-26T22:55:05.869Z,12.48
2022-09-26T22:57:36.046Z,12.10
2022-09-26T23:00:04.987Z,11.18
2022-09-26T23:02:32.441Z,12.18
2022-09-26T23:04:59.884Z,12.40
2022-09-26T23:07:27.598Z,13.00
2022-09-26T23:09:55.048Z,12.50
2022-09-26T23:12:22.621Z,12.57
2022-09-26T23:14:50.336Z,11.63
2022-09-26T23:17:17.849Z,11.63
2022-09-26T23:19:45.488Z,11.55
2022-09-26T23:22:13.755Z,11.23
2022-09-26T23:24:41.162Z,11.88
2022-09-26T23:27:08.632Z,12.75
2022-09-26T23:29:37.054Z,12.50
2022-09-26T23:32:10.698Z,12.13
2022-09-26T23:34:38.386Z,12.52
2022-09-26T23:37:05.795Z,11.82
2022-09-26T23:39:35.498Z,11.35
2022-09-26T23:42:03.544Z,11.60
2022-09-26T23:44:32.559Z,11.30
2022-09-26T23:47:04.275Z,12.00
2022-09-26T23:49:32.006Z,11.23
2022-09-26T23:51:59.529Z,10.50
2022-09-26T23:54:27.388Z,11.00
2022-09-26T23:56:55.962Z,10.73
2022-09-26T23:59:23.385Z,11.20
